SCO29JP EGPH-EGPF

Flight info

Callsign SCO29JP
Flight time 0h 25m
Altitude 8000
Route GRICE
Aircraft A320/M-SDE3FGHIRWY/LB1

Departure

Time 2026-05-01 10:51
Airport Edinburgh Airport (EGPH)

Arrival

Time 2026-05-01 11:16
Airport Glasgow Airport (EGPF)
Time Latitude Longitude Altitude Speed Heading
2026-05-01 10:32 55.94921 -3.36430 114 ft 0 kts 148°
2026-05-01 10:45 55.94921 -3.36431 116 ft 1 kts 148°
2026-05-01 10:45 55.94941 -3.36452 112 ft 4 kts 148°
2026-05-01 10:45 55.94964 -3.36477 114 ft 4 kts 148°
2026-05-01 10:46 55.94971 -3.36485 113 ft 0 kts 148°
2026-05-01 10:47 55.94968 -3.36479 112 ft 2 kts 134°
2026-05-01 10:48 55.94979 -3.36456 113 ft 8 kts 51°
2026-05-01 10:48 55.95059 -3.36395 113 ft 15 kts 356°
2026-05-01 10:48 55.95135 -3.36280 115 ft 16 kts 58°
2026-05-01 10:48 55.95197 -3.36101 112 ft 18 kts 58°
2026-05-01 10:49 55.95266 -3.35893 112 ft 21 kts 60°
2026-05-01 10:49 55.95345 -3.35658 114 ft 23 kts 59°
2026-05-01 10:49 55.95429 -3.35420 113 ft 19 kts 44°
2026-05-01 10:49 55.95531 -3.35472 111 ft 18 kts 332°
2026-05-01 10:50 55.95564 -3.35595 112 ft 6 kts 230°
2026-05-01 10:50 55.95503 -3.35771 113 ft 48 kts 239°
2026-05-01 10:50 55.95192 -3.36702 111 ft 122 kts 239°
2026-05-01 10:50 55.94663 -3.38251 367 ft 156 kts 240°
2026-05-01 10:51 55.94104 -3.39927 1152 ft 158 kts 239°
2026-05-01 10:51 55.93508 -3.41640 1804 ft 172 kts 238°
2026-05-01 10:51 55.92830 -3.43579 2328 ft 195 kts 238°
2026-05-01 10:51 55.92068 -3.45761 2789 ft 220 kts 239°
2026-05-01 10:52 55.91218 -3.48213 3437 ft 245 kts 240°
2026-05-01 10:52 55.90334 -3.50915 4324 ft 256 kts 247°
2026-05-01 10:52 55.90088 -3.54037 5318 ft 261 kts 274°
2026-05-01 10:52 55.90361 -3.57295 5809 ft 267 kts 282°
2026-05-01 10:53 55.91170 -3.60295 5967 ft 276 kts 306°
2026-05-01 10:53 55.92681 -3.62408 6006 ft 282 kts 335°
2026-05-01 10:53 55.94600 -3.63071 6014 ft 285 kts
2026-05-01 10:53 55.96499 -3.62231 6010 ft 286 kts 27°
2026-05-01 10:54 55.98169 -3.60250 6012 ft 286 kts 37°
2026-05-01 10:54 55.99787 -3.58156 6008 ft 287 kts 37°
2026-05-01 10:54 56.01380 -3.56104 6003 ft 286 kts 36°
2026-05-01 10:54 56.03014 -3.54011 6007 ft 287 kts 36°
2026-05-01 10:55 56.04622 -3.51949 6014 ft 287 kts 37°
2026-05-01 10:55 56.05962 -3.49390 6004 ft 283 kts 65°
2026-05-01 10:55 56.06336 -3.46023 6014 ft 276 kts 97°
2026-05-01 10:55 56.06161 -3.42544 6141 ft 283 kts 90°
2026-05-01 10:56 56.06446 -3.40246 6164 ft 285 kts 67°
2026-05-01 10:56 56.07693 -3.37562 6162 ft 287 kts 34°
2026-05-01 10:56 56.09520 -3.36166 6162 ft 288 kts 11°
2026-05-01 10:56 56.11499 -3.36053 6335 ft 285 kts 348°
2026-05-01 10:57 56.13347 -3.37242 6684 ft 284 kts 325°
2026-05-01 10:57 56.14756 -3.39666 7037 ft 280 kts 299°
2026-05-01 10:57 56.15491 -3.42841 7385 ft 277 kts 283°
2026-05-01 10:57 56.16030 -3.46158 7733 ft 278 kts 283°
2026-05-01 10:58 56.16571 -3.49500 8069 ft 280 kts 283°
2026-05-01 10:58 56.17118 -3.52880 8149 ft 281 kts 283°
2026-05-01 10:58 56.17663 -3.56242 8163 ft 281 kts 283°
2026-05-01 10:58 56.18214 -3.59611 8165 ft 281 kts 283°
2026-05-01 10:59 56.18761 -3.62996 8165 ft 281 kts 281°
2026-05-01 10:59 56.18963 -3.66393 8161 ft 276 kts 264°
2026-05-01 10:59 56.18610 -3.69779 8168 ft 273 kts 248°
2026-05-01 10:59 56.17764 -3.72758 8169 ft 270 kts 232°
2026-05-01 11:00 56.16596 -3.75380 8166 ft 269 kts 229°
2026-05-01 11:00 56.15392 -3.78025 8163 ft 270 kts 229°
2026-05-01 11:00 56.14225 -3.80602 8162 ft 270 kts 229°
2026-05-01 11:00 56.13045 -3.83216 8163 ft 269 kts 229°
2026-05-01 11:01 56.11868 -3.85823 8164 ft 270 kts 229°
2026-05-01 11:01 56.10690 -3.88430 8163 ft 270 kts 229°
2026-05-01 11:01 56.09505 -3.91046 8161 ft 269 kts 229°
2026-05-01 11:01 56.08327 -3.93642 8160 ft 269 kts 229°
2026-05-01 11:02 56.07138 -3.96256 8159 ft 270 kts 229°
2026-05-01 11:02 56.05954 -3.98855 8161 ft 270 kts 229°
2026-05-01 11:02 56.04769 -4.01454 8158 ft 270 kts 229°
2026-05-01 11:02 56.03577 -4.04061 8158 ft 269 kts 229°
2026-05-01 11:03 56.02361 -4.06600 8157 ft 269 kts 225°
2026-05-01 11:03 56.01066 -4.09001 8155 ft 269 kts 224°
2026-05-01 11:03 55.99752 -4.11403 8159 ft 270 kts 224°
2026-05-01 11:03 55.98440 -4.13792 8163 ft 270 kts 224°
2026-05-01 11:04 55.97120 -4.16193 8162 ft 270 kts 224°
2026-05-01 11:04 55.95810 -4.18576 8170 ft 269 kts 224°
2026-05-01 11:04 55.94492 -4.20971 8171 ft 269 kts 224°
2026-05-01 11:04 55.93197 -4.23327 8171 ft 270 kts 224°
2026-05-01 11:05 55.91887 -4.25710 8172 ft 269 kts 224°
2026-05-01 11:05 55.90555 -4.28133 8170 ft 270 kts 224°
2026-05-01 11:05 55.89258 -4.30490 8174 ft 270 kts 224°
2026-05-01 11:05 55.87938 -4.32884 8176 ft 270 kts 224°
2026-05-01 11:06 55.86623 -4.35271 7958 ft 270 kts 224°
2026-05-01 11:06 55.85317 -4.37643 7603 ft 268 kts 224°
2026-05-01 11:06 55.84012 -4.40010 7251 ft 266 kts 224°
2026-05-01 11:07 55.81428 -4.44687 6548 ft 264 kts 224°
2026-05-01 11:07 55.80151 -4.47000 6198 ft 261 kts 224°
2026-05-01 11:07 55.78893 -4.49280 5848 ft 257 kts 224°
2026-05-01 11:07 55.77651 -4.51534 5499 ft 253 kts 224°
2026-05-01 11:08 55.76431 -4.53745 5149 ft 250 kts 224°
2026-05-01 11:08 55.75215 -4.55942 4799 ft 248 kts 224°
2026-05-01 11:08 55.72814 -4.60287 4096 ft 245 kts 224°
2026-05-01 11:09 55.71627 -4.62431 3746 ft 244 kts 224°
2026-05-01 11:09 55.70461 -4.64535 3388 ft 242 kts 224°
2026-05-01 11:09 55.69281 -4.66713 3051 ft 241 kts 230°
2026-05-01 11:10 55.68859 -4.72007 3008 ft 216 kts 293°
2026-05-01 11:10 55.69847 -4.73905 2991 ft 208 kts 336°
2026-05-01 11:10 55.71196 -4.74014 3024 ft 193 kts 23°
2026-05-01 11:10 55.72067 -4.72458 3027 ft 167 kts 72°
2026-05-01 11:11 55.72473 -4.70658 3009 ft 156 kts 54°
2026-05-01 11:11 55.73284 -4.69280 3016 ft 162 kts 49°
2026-05-01 11:11 55.74039 -4.67823 3026 ft 162 kts 50°
2026-05-01 11:11 55.74810 -4.66359 3015 ft 162 kts 49°
2026-05-01 11:12 55.75603 -4.64878 2953 ft 163 kts 49°
2026-05-01 11:12 55.76371 -4.63450 2816 ft 162 kts 49°
2026-05-01 11:12 55.77143 -4.62019 2627 ft 160 kts 49°
2026-05-01 11:12 55.77902 -4.60611 2415 ft 158 kts 48°
2026-05-01 11:13 55.78654 -4.59219 2220 ft 155 kts 47°
2026-05-01 11:13 55.79392 -4.57850 2013 ft 153 kts 47°
2026-05-01 11:13 55.80122 -4.56494 1796 ft 151 kts 47°
2026-05-01 11:13 55.80852 -4.55137 1615 ft 152 kts 47°
2026-05-01 11:14 55.81580 -4.53785 1412 ft 152 kts 46°
2026-05-01 11:14 55.82309 -4.52429 1203 ft 151 kts 46°
2026-05-01 11:14 55.83030 -4.51089 1004 ft 150 kts 46°
2026-05-01 11:14 55.83746 -4.49755 808 ft 149 kts 46°
2026-05-01 11:15 55.84466 -4.48415 621 ft 149 kts 46°
2026-05-01 11:15 55.85179 -4.47086 403 ft 149 kts 46°
2026-05-01 11:15 55.85890 -4.45760 216 ft 148 kts 46°
2026-05-01 11:15 55.86603 -4.44432 41 ft 146 kts 46°
2026-05-01 11:16 55.87149 -4.43410 34 ft 72 kts 46°
2026-05-01 11:16 55.87437 -4.42871 30 ft 55 kts 46°
2026-05-01 11:16 55.87679 -4.42422 29 ft 39 kts 46°
2026-05-01 11:16 55.87737 -4.42202 24 ft 15 kts 132°
2026-05-01 11:17 55.87641 -4.42155 24 ft 14 kts 195°
2026-05-01 11:17 55.87572 -4.42240 26 ft 11 kts 225°
2026-05-01 11:17 55.87522 -4.42336 27 ft 10 kts 227°
2026-05-01 11:17 55.87485 -4.42405 29 ft 6 kts 226°
2026-05-01 11:18 55.87426 -4.42515 28 ft 20 kts 226°
2026-05-01 11:18 55.87283 -4.42656 28 ft 25 kts 199°
2026-05-01 11:18 55.87110 -4.42774 28 ft 28 kts 199°
2026-05-01 11:18 55.86939 -4.42896 31 ft 26 kts 207°
2026-05-01 11:19 55.86833 -4.43111 30 ft 25 kts 255°
2026-05-01 11:19 55.86781 -4.43428 30 ft 28 kts 253°
2026-05-01 11:19 55.86712 -4.43617 29 ft 11 kts 181°
2026-05-01 11:19 55.86652 -4.43579 29 ft 9 kts 163°
2026-05-01 11:20 55.86596 -4.43550 29 ft 8 kts 163°
2026-05-01 11:20 55.86567 -4.43501 30 ft 5 kts 106°
2026-05-01 11:20 55.86572 -4.43446 31 ft 3 kts 73°
2026-05-01 11:20 55.86574 -4.43431 31 ft 0 kts 73°
2026-05-01 11:29 55.86574 -4.43433 31 ft 4 kts 71°
2026-05-01 11:30 55.86571 -4.43461 30 ft 4 kts 70°
2026-05-01 11:30 55.86558 -4.43502 30 ft 4 kts 40°
2026-05-01 11:30 55.86537 -4.43519 30 ft 4 kts 352°
2026-05-01 11:30 55.86528 -4.43516 30 ft 0 kts 344°
2026-05-01 11:33 55.86536 -4.43520 30 ft 6 kts 344°
2026-05-01 11:33 55.86616 -4.43561 29 ft 15 kts 343°
2026-05-01 11:33 55.86709 -4.43609 29 ft 13 kts 346°
2026-05-01 11:34 55.86765 -4.43530 30 ft 12 kts 74°
2026-05-01 11:34 55.86793 -4.43365 30 ft 17 kts 73°
2026-05-01 11:34 55.86828 -4.43145 31 ft 18 kts 74°
2026-05-01 11:34 55.86853 -4.42990 32 ft 9 kts 70°
2026-05-01 11:35 55.86880 -4.42949 31 ft 2 kts 27°
2026-05-01 11:35 55.86897 -4.42934 30 ft 3 kts 27°
2026-05-01 11:35 55.86912 -4.42921 30 ft 3 kts 26°
2026-05-01 11:35 55.86976 -4.42865 30 ft 14 kts 26°
2026-05-01 11:36 55.87060 -4.42808 29 ft 11 kts 19°
2026-05-01 11:36 55.87129 -4.42763 28 ft 13 kts 20°
2026-05-01 11:36 55.87229 -4.42692 27 ft 17 kts 22°
2026-05-01 11:36 55.87343 -4.42618 28 ft 19 kts 20°
2026-05-01 11:37 55.87450 -4.42472 29 ft 20 kts 46°
2026-05-01 11:37 55.87553 -4.42281 26 ft 24 kts 46°
2026-05-01 11:37 55.87675 -4.42053 25 ft 27 kts 46°
2026-05-01 11:37 55.87804 -4.41858 24 ft 25 kts 18°
2026-05-01 11:38 55.87852 -4.41849 22 ft 0 kts
2026-05-01 11:38 55.87853 -4.41849 22 ft 1 kts
2026-05-01 11:38 55.87906 -4.41889 26 ft 16 kts 310°
2026-05-01 11:38 55.87896 -4.42017 27 ft 0 kts 225°